首页
METAR-TAF:

METAR-TAF

机场 :

Johnson County Airport

水牛城, 怀俄明州, 美国

纬度: 44-22-53N, 经度: 106-43-08W, 海拔: 1514米

当前天气观测

该预报发布于21分钟前的10:53 UTC
风速5节,风向西
温度 15°C
湿度 67%
气压 1017 hPa
能見度: 16.1公里
天空无云

METAR: KBYG 271053Z AUTO 28005KT 10SM CLR 15/09 A3004 RMK AO2 SLP119 T01500094

时间: 05:14 (11:14 UTC)


TAF: 丢失

超过4000个机场的气象观测和天气预报(METAR&TAF报告)。

可查询的气象台以黄色和红色小点在地图上表示。

将鼠标移到小点上方,可查看气象台名称。

然后点击查看天气观测和预报。

如需切换地图:点击带黑十字的绿色按钮放大地图;点击带横线的绿色按钮缩小地图;或者点击绿色箭头查看邻近地区的地图。


METAR-TAF: